sensor_id;sensor_type;location;lat;lon;timestamp;P1;durP1;ratioP1;P2;durP2;ratioP2
21089;SDS011;10703;51.020;6.128;2023-04-30T00:00:37;48.40;;;28.37;;
21089;SDS011;10703;51.020;6.128;2023-04-30T00:03:03;43.10;;;25.80;;
21089;SDS011;10703;51.020;6.128;2023-04-30T00:05:30;37.80;;;25.27;;
21089;SDS011;10703;51.020;6.128;2023-04-30T00:07:57;40.33;;;23.77;;
21089;SDS011;10703;51.020;6.128;2023-04-30T00:10:23;40.00;;;25.57;;
21089;SDS011;10703;51.020;6.128;2023-04-30T00:12:50;39.83;;;25.67;;
21089;SDS011;10703;51.020;6.128;2023-04-30T00:15:16;46.53;;;26.47;;
21089;SDS011;10703;51.020;6.128;2023-04-30T00:17:43;40.50;;;26.07;;
21089;SDS011;10703;51.020;6.128;2023-04-30T00:20:10;42.03;;;26.00;;
21089;SDS011;10703;51.020;6.128;2023-04-30T00:22:37;39.60;;;25.80;;
21089;SDS011;10703;51.020;6.128;2023-04-30T00:25:04;45.03;;;26.33;;
21089;SDS011;10703;51.020;6.128;2023-04-30T00:27:31;42.90;;;25.33;;
21089;SDS011;10703;51.020;6.128;2023-04-30T00:29:58;43.07;;;26.33;;
21089;SDS011;10703;51.020;6.128;2023-04-30T00:32:24;47.43;;;25.93;;
21089;SDS011;10703;51.020;6.128;2023-04-30T00:34:51;42.50;;;25.63;;
21089;SDS011;10703;51.020;6.128;2023-04-30T00:37:17;45.20;;;25.87;;
21089;SDS011;10703;51.020;6.128;2023-04-30T00:39:44;41.60;;;25.30;;
21089;SDS011;10703;51.020;6.128;2023-04-30T00:42:10;34.97;;;24.83;;
21089;SDS011;10703;51.020;6.128;2023-04-30T00:44:37;38.10;;;24.83;;
21089;SDS011;10703;51.020;6.128;2023-04-30T00:47:04;34.63;;;23.00;;
21089;SDS011;10703;51.020;6.128;2023-04-30T00:49:30;41.83;;;23.93;;
21089;SDS011;10703;51.020;6.128;2023-04-30T00:51:57;42.57;;;23.73;;
21089;SDS011;10703;51.020;6.128;2023-04-30T00:54:23;39.57;;;23.43;;
21089;SDS011;10703;51.020;6.128;2023-04-30T00:56:50;44.80;;;22.70;;
21089;SDS011;10703;51.020;6.128;2023-04-30T00:59:17;46.37;;;24.33;;
21089;SDS011;10703;51.020;6.128;2023-04-30T01:01:44;41.87;;;22.60;;
21089;SDS011;10703;51.020;6.128;2023-04-30T01:04:11;37.27;;;23.87;;
21089;SDS011;10703;51.020;6.128;2023-04-30T01:06:37;43.30;;;23.47;;
21089;SDS011;10703;51.020;6.128;2023-04-30T01:09:04;39.47;;;22.90;;
21089;SDS011;10703;51.020;6.128;2023-04-30T01:15:05;38.27;;;24.03;;
21089;SDS011;10703;51.020;6.128;2023-04-30T01:17:40;36.93;;;22.60;;
21089;SDS011;10703;51.020;6.128;2023-04-30T01:20:13;35.70;;;21.97;;
21089;SDS011;10703;51.020;6.128;2023-04-30T01:22:54;42.77;;;23.33;;
21089;SDS011;10703;51.020;6.128;2023-04-30T01:28:26;40.60;;;23.27;;
21089;SDS011;10703;51.020;6.128;2023-04-30T01:30:53;51.23;;;24.67;;
21089;SDS011;10703;51.020;6.128;2023-04-30T01:33:21;43.63;;;25.60;;
21089;SDS011;10703;51.020;6.128;2023-04-30T01:38:44;44.03;;;24.60;;
21089;SDS011;10703;51.020;6.128;2023-04-30T01:46:46;52.50;;;27.33;;
21089;SDS011;10703;51.020;6.128;2023-04-30T01:49:50;49.87;;;26.13;;
21089;SDS011;10703;51.020;6.128;2023-04-30T01:52:40;55.40;;;27.47;;
21089;SDS011;10703;51.020;6.128;2023-04-30T01:55:41;52.23;;;29.00;;
21089;SDS011;10703;51.020;6.128;2023-04-30T01:58:10;50.37;;;27.33;;
21089;SDS011;10703;51.020;6.128;2023-04-30T02:00:38;57.43;;;28.53;;
21089;SDS011;10703;51.020;6.128;2023-04-30T02:03:05;65.00;;;29.83;;
21089;SDS011;10703;51.020;6.128;2023-04-30T02:05:32;55.57;;;29.53;;
21089;SDS011;10703;51.020;6.128;2023-04-30T02:07:58;62.17;;;30.03;;
21089;SDS011;10703;51.020;6.128;2023-04-30T02:10:26;69.23;;;31.10;;
21089;SDS011;10703;51.020;6.128;2023-04-30T02:12:54;71.67;;;31.47;;
21089;SDS011;10703;51.020;6.128;2023-04-30T02:15:20;60.80;;;30.70;;
21089;SDS011;10703;51.020;6.128;2023-04-30T02:17:47;68.17;;;31.87;;
21089;SDS011;10703;51.020;6.128;2023-04-30T02:20:14;64.70;;;30.93;;
21089;SDS011;10703;51.020;6.128;2023-04-30T02:22:40;61.83;;;29.50;;
21089;SDS011;10703;51.020;6.128;2023-04-30T02:25:07;66.83;;;31.70;;
21089;SDS011;10703;51.020;6.128;2023-04-30T02:27:34;59.93;;;30.93;;
21089;SDS011;10703;51.020;6.128;2023-04-30T02:30:01;63.93;;;30.83;;
21089;SDS011;10703;51.020;6.128;2023-04-30T02:32:28;63.37;;;31.73;;
21089;SDS011;10703;51.020;6.128;2023-04-30T02:34:55;61.60;;;31.70;;
21089;SDS011;10703;51.020;6.128;2023-04-30T02:37:21;71.97;;;32.13;;
21089;SDS011;10703;51.020;6.128;2023-04-30T02:39:48;74.20;;;33.77;;
21089;SDS011;10703;51.020;6.128;2023-04-30T02:42:16;72.93;;;32.57;;
21089;SDS011;10703;51.020;6.128;2023-04-30T02:44:42;68.40;;;31.50;;
21089;SDS011;10703;51.020;6.128;2023-04-30T02:47:09;69.47;;;33.33;;
21089;SDS011;10703;51.020;6.128;2023-04-30T02:49:35;69.53;;;30.77;;
21089;SDS011;10703;51.020;6.128;2023-04-30T02:52:02;76.47;;;33.70;;
21089;SDS011;10703;51.020;6.128;2023-04-30T02:54:29;66.73;;;32.70;;
21089;SDS011;10703;51.020;6.128;2023-04-30T02:56:55;74.27;;;33.93;;
21089;SDS011;10703;51.020;6.128;2023-04-30T02:59:22;66.80;;;32.70;;
21089;SDS011;10703;51.020;6.128;2023-04-30T03:01:48;73.23;;;32.77;;
21089;SDS011;10703;51.020;6.128;2023-04-30T03:04:15;69.97;;;32.50;;
21089;SDS011;10703;51.020;6.128;2023-04-30T03:06:42;71.90;;;32.50;;
21089;SDS011;10703;51.020;6.128;2023-04-30T03:09:09;75.23;;;34.43;;
21089;SDS011;10703;51.020;6.128;2023-04-30T03:11:35;66.73;;;31.60;;
21089;SDS011;10703;51.020;6.128;2023-04-30T03:14:03;75.20;;;34.13;;
21089;SDS011;10703;51.020;6.128;2023-04-30T03:16:30;71.00;;;33.57;;
21089;SDS011;10703;51.020;6.128;2023-04-30T03:18:56;73.90;;;33.43;;
21089;SDS011;10703;51.020;6.128;2023-04-30T03:21:23;82.67;;;34.57;;
21089;SDS011;10703;51.020;6.128;2023-04-30T03:23:50;69.27;;;31.10;;
21089;SDS011;10703;51.020;6.128;2023-04-30T03:26:16;81.17;;;34.87;;
21089;SDS011;10703;51.020;6.128;2023-04-30T03:28:43;73.03;;;34.20;;
21089;SDS011;10703;51.020;6.128;2023-04-30T03:31:09;78.40;;;34.33;;
21089;SDS011;10703;51.020;6.128;2023-04-30T03:33:36;67.33;;;33.53;;
21089;SDS011;10703;51.020;6.128;2023-04-30T03:36:03;74.80;;;35.03;;
21089;SDS011;10703;51.020;6.128;2023-04-30T03:38:29;75.63;;;33.27;;
21089;SDS011;10703;51.020;6.128;2023-04-30T03:40:56;75.33;;;33.33;;
21089;SDS011;10703;51.020;6.128;2023-04-30T03:43:22;72.03;;;34.40;;
21089;SDS011;10703;51.020;6.128;2023-04-30T03:45:49;73.83;;;35.27;;
21089;SDS011;10703;51.020;6.128;2023-04-30T03:48:16;82.97;;;34.00;;
21089;SDS011;10703;51.020;6.128;2023-04-30T03:50:43;78.60;;;35.37;;
21089;SDS011;10703;51.020;6.128;2023-04-30T03:53:10;78.70;;;34.80;;
21089;SDS011;10703;51.020;6.128;2023-04-30T03:55:37;74.83;;;33.60;;
21089;SDS011;10703;51.020;6.128;2023-04-30T03:58:03;92.10;;;36.47;;
21089;SDS011;10703;51.020;6.128;2023-04-30T04:00:30;77.93;;;33.83;;
21089;SDS011;10703;51.020;6.128;2023-04-30T04:02:57;80.20;;;34.27;;
21089;SDS011;10703;51.020;6.128;2023-04-30T04:05:24;78.70;;;34.40;;
21089;SDS011;10703;51.020;6.128;2023-04-30T04:07:51;77.00;;;33.90;;
21089;SDS011;10703;51.020;6.128;2023-04-30T04:10:18;80.40;;;34.07;;
21089;SDS011;10703;51.020;6.128;2023-04-30T04:12:44;77.90;;;33.27;;
21089;SDS011;10703;51.020;6.128;2023-04-30T04:15:11;77.77;;;33.80;;
21089;SDS011;10703;51.020;6.128;2023-04-30T04:17:38;79.70;;;34.67;;
21089;SDS011;10703;51.020;6.128;2023-04-30T04:20:05;83.93;;;34.73;;
21089;SDS011;10703;51.020;6.128;2023-04-30T04:22:32;85.90;;;34.30;;
21089;SDS011;10703;51.020;6.128;2023-04-30T04:24:59;81.93;;;34.87;;
21089;SDS011;10703;51.020;6.128;2023-04-30T04:27:26;82.13;;;36.23;;
21089;SDS011;10703;51.020;6.128;2023-04-30T04:29:52;86.53;;;35.80;;
21089;SDS011;10703;51.020;6.128;2023-04-30T04:32:20;78.37;;;36.60;;
21089;SDS011;10703;51.020;6.128;2023-04-30T04:34:48;93.73;;;36.33;;
21089;SDS011;10703;51.020;6.128;2023-04-30T04:37:14;87.90;;;36.37;;
21089;SDS011;10703;51.020;6.128;2023-04-30T04:39:42;86.53;;;37.20;;
21089;SDS011;10703;51.020;6.128;2023-04-30T04:42:10;91.93;;;36.80;;
21089;SDS011;10703;51.020;6.128;2023-04-30T04:44:36;83.23;;;36.33;;
21089;SDS011;10703;51.020;6.128;2023-04-30T04:47:03;86.33;;;37.30;;
21089;SDS011;10703;51.020;6.128;2023-04-30T04:49:30;92.80;;;36.90;;
21089;SDS011;10703;51.020;6.128;2023-04-30T04:51:56;81.60;;;37.13;;
21089;SDS011;10703;51.020;6.128;2023-04-30T04:54:23;91.80;;;36.73;;
21089;SDS011;10703;51.020;6.128;2023-04-30T04:56:50;90.37;;;39.00;;
21089;SDS011;10703;51.020;6.128;2023-04-30T04:59:16;91.03;;;37.47;;
21089;SDS011;10703;51.020;6.128;2023-04-30T05:01:43;85.50;;;38.03;;
21089;SDS011;10703;51.020;6.128;2023-04-30T05:04:10;89.13;;;37.70;;
21089;SDS011;10703;51.020;6.128;2023-04-30T05:06:39;88.93;;;38.10;;
21089;SDS011;10703;51.020;6.128;2023-04-30T05:09:06;94.53;;;38.63;;
21089;SDS011;10703;51.020;6.128;2023-04-30T05:11:34;94.93;;;39.50;;
21089;SDS011;10703;51.020;6.128;2023-04-30T05:14:01;105.27;;;39.10;;
21089;SDS011;10703;51.020;6.128;2023-04-30T05:16:28;96.30;;;40.90;;
21089;SDS011;10703;51.020;6.128;2023-04-30T05:18:55;94.00;;;38.30;;
21089;SDS011;10703;51.020;6.128;2023-04-30T05:21:21;95.17;;;40.20;;
21089;SDS011;10703;51.020;6.128;2023-04-30T05:23:48;96.00;;;39.77;;
21089;SDS011;10703;51.020;6.128;2023-04-30T05:26:14;99.17;;;40.97;;
21089;SDS011;10703;51.020;6.128;2023-04-30T05:28:41;105.57;;;39.83;;
21089;SDS011;10703;51.020;6.128;2023-04-30T05:31:08;108.40;;;41.87;;
21089;SDS011;10703;51.020;6.128;2023-04-30T05:33:34;102.30;;;42.43;;
21089;SDS011;10703;51.020;6.128;2023-04-30T05:36:02;98.33;;;41.83;;
21089;SDS011;10703;51.020;6.128;2023-04-30T05:38:29;105.83;;;43.30;;
21089;SDS011;10703;51.020;6.128;2023-04-30T05:40:55;106.17;;;43.87;;
21089;SDS011;10703;51.020;6.128;2023-04-30T05:43:22;113.90;;;45.00;;
21089;SDS011;10703;51.020;6.128;2023-04-30T05:45:48;101.83;;;42.87;;
21089;SDS011;10703;51.020;6.128;2023-04-30T05:48:15;102.83;;;41.57;;
21089;SDS011;10703;51.020;6.128;2023-04-30T05:50:42;101.77;;;43.40;;
21089;SDS011;10703;51.020;6.128;2023-04-30T05:53:09;107.63;;;42.57;;
21089;SDS011;10703;51.020;6.128;2023-04-30T05:55:35;106.60;;;44.07;;
21089;SDS011;10703;51.020;6.128;2023-04-30T05:58:02;106.13;;;44.27;;
21089;SDS011;10703;51.020;6.128;2023-04-30T06:00:28;103.53;;;44.77;;
21089;SDS011;10703;51.020;6.128;2023-04-30T06:02:56;103.33;;;44.33;;
21089;SDS011;10703;51.020;6.128;2023-04-30T06:05:23;109.63;;;43.83;;
21089;SDS011;10703;51.020;6.128;2023-04-30T06:07:49;108.80;;;45.00;;
21089;SDS011;10703;51.020;6.128;2023-04-30T06:10:16;103.30;;;46.90;;
21089;SDS011;10703;51.020;6.128;2023-04-30T06:12:42;104.33;;;45.63;;
21089;SDS011;10703;51.020;6.128;2023-04-30T06:15:09;114.67;;;48.67;;
21089;SDS011;10703;51.020;6.128;2023-04-30T06:17:35;120.00;;;49.33;;
21089;SDS011;10703;51.020;6.128;2023-04-30T06:20:02;112.33;;;47.83;;
21089;SDS011;10703;51.020;6.128;2023-04-30T06:22:32;121.73;;;49.73;;
21089;SDS011;10703;51.020;6.128;2023-04-30T06:24:59;113.70;;;50.17;;
21089;SDS011;10703;51.020;6.128;2023-04-30T06:27:25;116.00;;;49.37;;
21089;SDS011;10703;51.020;6.128;2023-04-30T06:29:57;104.93;;;46.53;;
21089;SDS011;10703;51.020;6.128;2023-04-30T06:32:25;112.93;;;46.87;;
21089;SDS011;10703;51.020;6.128;2023-04-30T06:34:52;112.50;;;46.73;;
21089;SDS011;10703;51.020;6.128;2023-04-30T06:37:19;108.23;;;46.13;;
21089;SDS011;10703;51.020;6.128;2023-04-30T06:39:46;103.40;;;44.00;;
21089;SDS011;10703;51.020;6.128;2023-04-30T06:42:12;98.27;;;45.67;;
21089;SDS011;10703;51.020;6.128;2023-04-30T06:44:39;108.43;;;46.23;;
21089;SDS011;10703;51.020;6.128;2023-04-30T06:47:05;91.83;;;42.57;;
21089;SDS011;10703;51.020;6.128;2023-04-30T06:49:32;95.93;;;42.83;;
21089;SDS011;10703;51.020;6.128;2023-04-30T06:51:59;102.13;;;46.60;;
21089;SDS011;10703;51.020;6.128;2023-04-30T06:54:26;104.90;;;46.60;;
21089;SDS011;10703;51.020;6.128;2023-04-30T06:56:53;95.77;;;47.43;;
21089;SDS011;10703;51.020;6.128;2023-04-30T06:59:19;86.10;;;44.07;;
21089;SDS011;10703;51.020;6.128;2023-04-30T07:01:46;60.13;;;38.23;;
21089;SDS011;10703;51.020;6.128;2023-04-30T07:04:13;45.87;;;32.07;;
21089;SDS011;10703;51.020;6.128;2023-04-30T07:06:39;34.20;;;26.00;;
21089;SDS011;10703;51.020;6.128;2023-04-30T07:09:06;26.07;;;20.37;;
21089;SDS011;10703;51.020;6.128;2023-04-30T07:11:33;23.43;;;17.83;;
21089;SDS011;10703;51.020;6.128;2023-04-30T07:13:59;18.73;;;15.30;;
21089;SDS011;10703;51.020;6.128;2023-04-30T07:16:26;16.70;;;14.00;;
21089;SDS011;10703;51.020;6.128;2023-04-30T07:18:53;15.07;;;13.10;;
21089;SDS011;10703;51.020;6.128;2023-04-30T07:21:19;18.58;;;12.70;;
21089;SDS011;10703;51.020;6.128;2023-04-30T07:23:46;15.80;;;11.90;;
21089;SDS011;10703;51.020;6.128;2023-04-30T07:26:13;18.25;;;12.13;;
21089;SDS011;10703;51.020;6.128;2023-04-30T07:28:40;13.32;;;11.57;;
21089;SDS011;10703;51.020;6.128;2023-04-30T07:31:07;12.85;;;11.43;;
21089;SDS011;10703;51.020;6.128;2023-04-30T07:33:34;12.65;;;11.38;;
21089;SDS011;10703;51.020;6.128;2023-04-30T07:36:00;12.15;;;10.95;;
21089;SDS011;10703;51.020;6.128;2023-04-30T07:38:27;13.57;;;11.75;;
21089;SDS011;10703;51.020;6.128;2023-04-30T07:40:54;15.35;;;12.07;;
21089;SDS011;10703;51.020;6.128;2023-04-30T07:43:21;13.90;;;12.15;;
21089;SDS011;10703;51.020;6.128;2023-04-30T07:45:47;13.10;;;11.68;;
21089;SDS011;10703;51.020;6.128;2023-04-30T07:48:15;13.40;;;11.65;;
21089;SDS011;10703;51.020;6.128;2023-04-30T07:50:42;16.55;;;12.20;;
21089;SDS011;10703;51.020;6.128;2023-04-30T07:53:08;14.32;;;10.80;;
21089;SDS011;10703;51.020;6.128;2023-04-30T07:55:35;12.55;;;11.25;;
21089;SDS011;10703;51.020;6.128;2023-04-30T07:58:01;12.77;;;11.43;;
21089;SDS011;10703;51.020;6.128;2023-04-30T08:00:29;15.43;;;12.80;;
21089;SDS011;10703;51.020;6.128;2023-04-30T08:02:56;14.30;;;12.80;;
21089;SDS011;10703;51.020;6.128;2023-04-30T08:05:24;17.13;;;13.18;;
21089;SDS011;10703;51.020;6.128;2023-04-30T08:07:50;15.43;;;12.52;;
21089;SDS011;10703;51.020;6.128;2023-04-30T08:10:17;15.50;;;12.13;;
21089;SDS011;10703;51.020;6.128;2023-04-30T08:12:43;14.63;;;12.27;;
21089;SDS011;10703;51.020;6.128;2023-04-30T08:15:10;15.73;;;11.70;;
21089;SDS011;10703;51.020;6.128;2023-04-30T08:17:37;15.27;;;12.05;;
21089;SDS011;10703;51.020;6.128;2023-04-30T08:20:04;15.35;;;12.30;;
21089;SDS011;10703;51.020;6.128;2023-04-30T08:22:32;14.90;;;12.43;;
21089;SDS011;10703;51.020;6.128;2023-04-30T08:24:59;15.70;;;11.98;;
21089;SDS011;10703;51.020;6.128;2023-04-30T08:27:26;16.40;;;12.02;;
21089;SDS011;10703;51.020;6.128;2023-04-30T08:29:55;17.30;;;11.75;;
21089;SDS011;10703;51.020;6.128;2023-04-30T08:32:22;13.90;;;12.13;;
21089;SDS011;10703;51.020;6.128;2023-04-30T08:34:49;13.13;;;11.32;;
21089;SDS011;10703;51.020;6.128;2023-04-30T08:37:16;19.30;;;11.38;;
21089;SDS011;10703;51.020;6.128;2023-04-30T08:39:43;13.02;;;11.55;;
21089;SDS011;10703;51.020;6.128;2023-04-30T08:42:09;14.00;;;10.55;;
21089;SDS011;10703;51.020;6.128;2023-04-30T08:44:40;14.32;;;11.00;;
21089;SDS011;10703;51.020;6.128;2023-04-30T08:47:11;13.98;;;10.57;;
21089;SDS011;10703;51.020;6.128;2023-04-30T08:49:39;13.55;;;10.93;;
21089;SDS011;10703;51.020;6.128;2023-04-30T08:52:06;12.13;;;10.73;;
21089;SDS011;10703;51.020;6.128;2023-04-30T08:54:34;14.65;;;11.63;;
21089;SDS011;10703;51.020;6.128;2023-04-30T08:57:01;16.42;;;11.52;;
21089;SDS011;10703;51.020;6.128;2023-04-30T08:59:28;14.32;;;9.45;;
21089;SDS011;10703;51.020;6.128;2023-04-30T09:01:55;11.40;;;9.68;;
21089;SDS011;10703;51.020;6.128;2023-04-30T09:04:22;12.27;;;9.23;;
21089;SDS011;10703;51.020;6.128;2023-04-30T09:06:50;11.50;;;9.13;;
21089;SDS011;10703;51.020;6.128;2023-04-30T09:09:27;10.77;;;9.35;;
21089;SDS011;10703;51.020;6.128;2023-04-30T09:12:11;9.93;;;8.93;;
21089;SDS011;10703;51.020;6.128;2023-04-30T09:14:56;11.48;;;10.30;;
21089;SDS011;10703;51.020;6.128;2023-04-30T09:17:24;12.25;;;10.57;;
21089;SDS011;10703;51.020;6.128;2023-04-30T09:19:51;12.85;;;9.48;;
21089;SDS011;10703;51.020;6.128;2023-04-30T09:22:21;13.50;;;10.40;;
21089;SDS011;10703;51.020;6.128;2023-04-30T09:24:49;10.82;;;9.40;;
21089;SDS011;10703;51.020;6.128;2023-04-30T09:27:22;14.00;;;9.30;;
21089;SDS011;10703;51.020;6.128;2023-04-30T09:29:49;11.43;;;10.10;;
21089;SDS011;10703;51.020;6.128;2023-04-30T09:32:15;11.50;;;9.15;;
21089;SDS011;10703;51.020;6.128;2023-04-30T09:34:42;10.02;;;9.02;;
21089;SDS011;10703;51.020;6.128;2023-04-30T09:37:09;13.90;;;9.07;;
21089;SDS011;10703;51.020;6.128;2023-04-30T09:39:49;11.30;;;9.07;;
21089;SDS011;10703;51.020;6.128;2023-04-30T09:42:17;11.10;;;8.88;;
21089;SDS011;10703;51.020;6.128;2023-04-30T09:44:45;11.07;;;9.23;;
21089;SDS011;10703;51.020;6.128;2023-04-30T09:47:16;10.27;;;8.90;;
21089;SDS011;10703;51.020;6.128;2023-04-30T09:49:47;12.80;;;8.60;;
21089;SDS011;10703;51.020;6.128;2023-04-30T09:52:19;14.40;;;7.95;;
21089;SDS011;10703;51.020;6.128;2023-04-30T09:54:46;9.98;;;8.75;;
21089;SDS011;10703;51.020;6.128;2023-04-30T09:57:14;9.15;;;7.53;;
21089;SDS011;10703;51.020;6.128;2023-04-30T09:59:44;7.88;;;6.90;;
21089;SDS011;10703;51.020;6.128;2023-04-30T10:02:13;8.57;;;7.68;;
21089;SDS011;10703;51.020;6.128;2023-04-30T10:04:42;7.50;;;6.05;;
21089;SDS011;10703;51.020;6.128;2023-04-30T10:07:14;7.28;;;5.97;;
21089;SDS011;10703;51.020;6.128;2023-04-30T10:09:49;4.43;;;4.07;;
21089;SDS011;10703;51.020;6.128;2023-04-30T10:12:19;4.60;;;4.20;;
21089;SDS011;10703;51.020;6.128;2023-04-30T10:14:53;7.95;;;5.10;;
21089;SDS011;10703;51.020;6.128;2023-04-30T10:17:23;5.35;;;4.85;;
21089;SDS011;10703;51.020;6.128;2023-04-30T10:19:54;6.57;;;5.13;;
21089;SDS011;10703;51.020;6.128;2023-04-30T10:22:26;5.10;;;4.60;;
21089;SDS011;10703;51.020;6.128;2023-04-30T10:24:54;5.30;;;4.38;;
21089;SDS011;10703;51.020;6.128;2023-04-30T10:27:22;5.53;;;4.13;;
21089;SDS011;10703;51.020;6.128;2023-04-30T10:29:48;6.93;;;4.20;;
21089;SDS011;10703;51.020;6.128;2023-04-30T10:32:16;4.40;;;4.00;;
21089;SDS011;10703;51.020;6.128;2023-04-30T10:37:52;4.70;;;4.30;;
21089;SDS011;10703;51.020;6.128;2023-04-30T10:40:27;5.22;;;4.72;;
21089;SDS011;10703;51.020;6.128;2023-04-30T10:42:54;4.35;;;4.05;;
21089;SDS011;10703;51.020;6.128;2023-04-30T10:45:36;5.68;;;5.05;;
21089;SDS011;10703;51.020;6.128;2023-04-30T10:48:06;5.22;;;4.72;;
21089;SDS011;10703;51.020;6.128;2023-04-30T10:50:38;4.93;;;4.53;;
21089;SDS011;10703;51.020;6.128;2023-04-30T10:53:11;5.43;;;4.97;;
21089;SDS011;10703;51.020;6.128;2023-04-30T10:56:02;6.47;;;5.60;;
21089;SDS011;10703;51.020;6.128;2023-04-30T10:58:35;5.80;;;5.30;;
21089;SDS011;10703;51.020;6.128;2023-04-30T11:01:07;6.05;;;5.53;;
21089;SDS011;10703;51.020;6.128;2023-04-30T11:03:42;4.57;;;4.18;;
21089;SDS011;10703;51.020;6.128;2023-04-30T11:06:47;4.93;;;4.53;;
21089;SDS011;10703;51.020;6.128;2023-04-30T11:09:17;4.57;;;4.15;;
21089;SDS011;10703;51.020;6.128;2023-04-30T11:11:45;4.70;;;3.78;;
21089;SDS011;10703;51.020;6.128;2023-04-30T11:14:13;3.97;;;3.67;;
21089;SDS011;10703;51.020;6.128;2023-04-30T11:16:48;5.30;;;3.67;;
21089;SDS011;10703;51.020;6.128;2023-04-30T11:19:16;5.20;;;4.70;;
21089;SDS011;10703;51.020;6.128;2023-04-30T11:27:30;4.22;;;3.80;;
21089;SDS011;10703;51.020;6.128;2023-04-30T11:30:02;7.28;;;4.60;;
21089;SDS011;10703;51.020;6.128;2023-04-30T11:32:35;4.60;;;4.20;;
21089;SDS011;10703;51.020;6.128;2023-04-30T11:35:03;5.32;;;4.43;;
21089;SDS011;10703;51.020;6.128;2023-04-30T11:37:35;6.82;;;5.00;;
21089;SDS011;10703;51.020;6.128;2023-04-30T11:40:04;5.85;;;5.00;;
21089;SDS011;10703;51.020;6.128;2023-04-30T11:42:33;5.97;;;5.00;;
21089;SDS011;10703;51.020;6.128;2023-04-30T11:48:05;5.63;;;5.13;;
21089;SDS011;10703;51.020;6.128;2023-04-30T11:50:25;5.20;;;4.70;;
21089;SDS011;10703;51.020;6.128;2023-04-30T11:52:58;10.38;;;5.03;;
21089;SDS011;10703;51.020;6.128;2023-04-30T11:55:28;7.47;;;4.82;;
21089;SDS011;10703;51.020;6.128;2023-04-30T11:57:55;6.95;;;4.63;;
21089;SDS011;10703;51.020;6.128;2023-04-30T12:00:28;4.60;;;4.28;;
21089;SDS011;10703;51.020;6.128;2023-04-30T12:02:56;5.65;;;5.15;;
21089;SDS011;10703;51.020;6.128;2023-04-30T12:05:26;5.03;;;4.53;;
21089;SDS011;10703;51.020;6.128;2023-04-30T12:07:59;6.07;;;3.97;;
21089;SDS011;10703;51.020;6.128;2023-04-30T12:10:30;3.60;;;3.30;;
21089;SDS011;10703;51.020;6.128;2023-04-30T12:12:57;4.15;;;3.85;;
21089;SDS011;10703;51.020;6.128;2023-04-30T12:15:24;4.80;;;4.28;;
21089;SDS011;10703;51.020;6.128;2023-04-30T12:17:53;5.35;;;4.20;;
21089;SDS011;10703;51.020;6.128;2023-04-30T12:20:21;6.35;;;4.20;;
21089;SDS011;10703;51.020;6.128;2023-04-30T12:22:49;4.30;;;3.78;;
21089;SDS011;10703;51.020;6.128;2023-04-30T12:25:17;4.43;;;4.03;;
21089;SDS011;10703;51.020;6.128;2023-04-30T12:27:46;5.25;;;4.30;;
21089;SDS011;10703;51.020;6.128;2023-04-30T12:30:20;4.78;;;4.35;;
21089;SDS011;10703;51.020;6.128;2023-04-30T12:32:49;4.70;;;4.40;;
21089;SDS011;10703;51.020;6.128;2023-04-30T12:35:18;4.55;;;4.15;;
21089;SDS011;10703;51.020;6.128;2023-04-30T12:37:47;4.28;;;3.97;;
21089;SDS011;10703;51.020;6.128;2023-04-30T12:40:17;4.78;;;4.38;;
21089;SDS011;10703;51.020;6.128;2023-04-30T12:42:45;5.10;;;4.65;;
21089;SDS011;10703;51.020;6.128;2023-04-30T12:48:10;4.22;;;3.80;;
21089;SDS011;10703;51.020;6.128;2023-04-30T12:50:38;5.13;;;4.70;;
21089;SDS011;10703;51.020;6.128;2023-04-30T12:53:05;5.93;;;4.22;;
21089;SDS011;10703;51.020;6.128;2023-04-30T12:55:35;4.72;;;4.32;;
21089;SDS011;10703;51.020;6.128;2023-04-30T13:01:12;5.03;;;4.53;;
21089;SDS011;10703;51.020;6.128;2023-04-30T13:03:31;4.35;;;3.95;;
21089;SDS011;10703;51.020;6.128;2023-04-30T13:05:57;4.40;;;4.00;;
21089;SDS011;10703;51.020;6.128;2023-04-30T13:08:27;5.10;;;4.60;;
21089;SDS011;10703;51.020;6.128;2023-04-30T13:10:54;4.30;;;3.95;;
21089;SDS011;10703;51.020;6.128;2023-04-30T13:13:21;4.50;;;4.10;;
21089;SDS011;10703;51.020;6.128;2023-04-30T13:15:48;3.97;;;3.58;;
21089;SDS011;10703;51.020;6.128;2023-04-30T13:18:14;4.15;;;3.60;;
21089;SDS011;10703;51.020;6.128;2023-04-30T13:20:41;4.60;;;4.00;;
21089;SDS011;10703;51.020;6.128;2023-04-30T13:23:11;3.95;;;3.63;;
21089;SDS011;10703;51.020;6.128;2023-04-30T13:25:37;4.00;;;3.50;;
21089;SDS011;10703;51.020;6.128;2023-04-30T13:28:05;3.97;;;3.60;;
21089;SDS011;10703;51.020;6.128;2023-04-30T13:30:32;3.90;;;3.20;;
21089;SDS011;10703;51.020;6.128;2023-04-30T13:32:59;4.20;;;3.80;;
21089;SDS011;10703;51.020;6.128;2023-04-30T13:35:27;3.85;;;3.55;;
21089;SDS011;10703;51.020;6.128;2023-04-30T13:37:53;4.13;;;3.83;;
21089;SDS011;10703;51.020;6.128;2023-04-30T13:40:20;4.00;;;3.70;;
21089;SDS011;10703;51.020;6.128;2023-04-30T13:42:47;4.25;;;3.95;;
21089;SDS011;10703;51.020;6.128;2023-04-30T13:45:14;4.57;;;4.18;;
21089;SDS011;10703;51.020;6.128;2023-04-30T13:47:41;4.00;;;3.70;;
21089;SDS011;10703;51.020;6.128;2023-04-30T13:50:08;3.95;;;3.60;;
21089;SDS011;10703;51.020;6.128;2023-04-30T13:52:35;4.93;;;3.67;;
21089;SDS011;10703;51.020;6.128;2023-04-30T13:55:02;3.63;;;3.30;;
21089;SDS011;10703;51.020;6.128;2023-04-30T13:57:30;4.47;;;3.40;;
21089;SDS011;10703;51.020;6.128;2023-04-30T14:00:00;3.45;;;3.17;;
21089;SDS011;10703;51.020;6.128;2023-04-30T14:02:27;3.65;;;3.15;;
21089;SDS011;10703;51.020;6.128;2023-04-30T14:04:54;3.53;;;2.97;;
21089;SDS011;10703;51.020;6.128;2023-04-30T14:07:31;3.10;;;2.80;;
21089;SDS011;10703;51.020;6.128;2023-04-30T14:09:57;4.35;;;3.10;;
21089;SDS011;10703;51.020;6.128;2023-04-30T14:12:24;2.90;;;2.70;;
21089;SDS011;10703;51.020;6.128;2023-04-30T14:14:51;3.08;;;2.78;;
21089;SDS011;10703;51.020;6.128;2023-04-30T14:17:18;2.75;;;2.47;;
21089;SDS011;10703;51.020;6.128;2023-04-30T14:19:45;3.15;;;2.78;;
21089;SDS011;10703;51.020;6.128;2023-04-30T14:22:11;3.22;;;2.90;;
21089;SDS011;10703;51.020;6.128;2023-04-30T14:24:38;3.20;;;2.78;;
21089;SDS011;10703;51.020;6.128;2023-04-30T14:27:05;3.65;;;3.35;;
21089;SDS011;10703;51.020;6.128;2023-04-30T14:29:32;21.25;;;17.63;;
21089;SDS011;10703;51.020;6.128;2023-04-30T14:31:58;3.40;;;3.10;;
21089;SDS011;10703;51.020;6.128;2023-04-30T14:34:26;3.53;;;2.95;;
21089;SDS011;10703;51.020;6.128;2023-04-30T14:36:52;3.40;;;2.72;;
21089;SDS011;10703;51.020;6.128;2023-04-30T14:39:19;4.50;;;2.80;;
21089;SDS011;10703;51.020;6.128;2023-04-30T14:41:46;5.72;;;2.88;;
21089;SDS011;10703;51.020;6.128;2023-04-30T14:44:12;3.83;;;3.47;;
21089;SDS011;10703;51.020;6.128;2023-04-30T14:46:39;3.63;;;2.85;;
21089;SDS011;10703;51.020;6.128;2023-04-30T14:49:06;3.33;;;2.63;;
21089;SDS011;10703;51.020;6.128;2023-04-30T14:51:32;5.05;;;3.17;;
21089;SDS011;10703;51.020;6.128;2023-04-30T14:54:00;4.30;;;3.97;;
21089;SDS011;10703;51.020;6.128;2023-04-30T14:56:27;2.90;;;2.70;;
21089;SDS011;10703;51.020;6.128;2023-04-30T14:58:54;3.13;;;2.90;;
21089;SDS011;10703;51.020;6.128;2023-04-30T15:01:21;4.03;;;2.60;;
21089;SDS011;10703;51.020;6.128;2023-04-30T15:03:47;3.92;;;3.47;;
21089;SDS011;10703;51.020;6.128;2023-04-30T15:06:14;3.42;;;2.80;;
21089;SDS011;10703;51.020;6.128;2023-04-30T15:08:41;4.70;;;2.40;;